createdAt,value
2018-04-11T00:00:05.672Z,39.4
2018-04-11T00:00:55.174Z,39.4
2018-04-11T00:01:45.526Z,39.4
2018-04-11T00:02:35.118Z,39.4
2018-04-11T00:03:25.359Z,39.4
2018-04-11T00:04:16.273Z,39.3
2018-04-11T00:05:06.301Z,39.3
2018-04-11T00:05:56.116Z,39.3
2018-04-11T00:06:46.183Z,39.3
2018-04-11T00:07:36.526Z,39.3
2018-04-11T00:08:26.009Z,39.3
2018-04-11T00:09:15.800Z,39.3
2018-04-11T00:10:07.017Z,39.3
2018-04-11T00:10:56.771Z,39.3
2018-04-11T00:11:46.824Z,39.3
2018-04-11T00:12:36.343Z,39.3
2018-04-11T00:13:26.968Z,39.3
2018-04-11T00:14:16.755Z,39.3
2018-04-11T00:15:06.505Z,39.3
2018-04-11T00:15:56.295Z,39.3
2018-04-11T00:16:46.933Z,39.2
2018-04-11T00:17:36.736Z,39.2
2018-04-11T00:18:27.333Z,39.2
2018-04-11T00:19:17.469Z,39.2
2018-04-11T00:20:07.188Z,39.2
2018-04-11T00:20:57.520Z,39.2
2018-04-11T00:21:46.719Z,39.1
2018-04-11T00:22:36.815Z,39.1
2018-04-11T00:23:27.754Z,39.1
2018-04-11T00:24:17.748Z,39.1
2018-04-11T00:25:07.820Z,39.1
2018-04-11T00:25:57.588Z,39.1
2018-04-11T00:26:47.668Z,39.1
2018-04-11T00:27:37.722Z,39.1
2018-04-11T00:28:28.067Z,39.1
2018-04-11T00:29:17.871Z,39.1
2018-04-11T00:30:08.198Z,39.1
2018-04-11T00:30:57.733Z,39.1
2018-04-11T00:31:48.334Z,39.1
2018-04-11T00:32:37.823Z,39.1
2018-04-11T00:33:28.154Z,39
2018-04-11T00:34:18.508Z,39
2018-04-11T00:35:08.588Z,39
2018-04-11T00:35:58.349Z,39
2018-04-11T00:36:48.726Z,39
2018-04-11T00:37:38.755Z,39
2018-04-11T00:38:28.575Z,38.9
2018-04-11T00:39:18.816Z,39
2018-04-11T00:40:08.969Z,38.9
2018-04-11T00:40:58.988Z,38.9
2018-04-11T00:41:49.092Z,38.9
2018-04-11T00:42:39.122Z,38.9
2018-04-11T00:43:28.920Z,38.9
2018-04-11T00:44:19.002Z,38.9
2018-04-11T00:45:09.040Z,38.9
2018-04-11T00:45:58.831Z,38.9
2018-04-11T00:46:48.325Z,38.9
2018-04-11T00:47:39.258Z,38.9
2018-04-11T00:48:28.988Z,38.9
2018-04-11T00:49:19.321Z,38.9
2018-04-11T00:50:09.703Z,38.9
2018-04-11T00:50:59.748Z,38.8
2018-04-11T00:51:49.550Z,38.8
2018-04-11T00:52:39.615Z,38.8
2018-04-11T00:53:29.135Z,38.8
2018-04-11T00:54:20.006Z,38.8
2018-04-11T00:55:10.077Z,38.8
2018-04-11T00:56:00.121Z,38.8
2018-04-11T00:56:50.168Z,38.8
2018-04-11T00:57:39.986Z,38.8
2018-04-11T00:58:30.333Z,38.8
2018-04-11T00:59:20.388Z,38.8
2018-04-11T01:00:10.145Z,38.8
2018-04-11T01:01:00.232Z,38.7
2018-04-11T01:01:49.710Z,38.8
2018-04-11T01:02:40.084Z,38.7
2018-04-11T01:03:29.844Z,38.7
2018-04-11T01:04:20.216Z,38.7
2018-04-11T01:05:10.840Z,38.7
2018-04-11T01:06:00.314Z,38.7
2018-04-11T01:06:50.394Z,38.6
2018-04-11T01:07:40.996Z,38.6
2018-04-11T01:08:30.785Z,38.6
2018-04-11T01:09:20.850Z,38.6
2018-04-11T01:10:11.173Z,38.6
2018-04-11T01:11:01.004Z,38.6
2018-04-11T01:11:51.095Z,38.6
2018-04-11T01:12:41.413Z,38.6
2018-04-11T01:13:31.490Z,38.6
2018-04-11T01:14:20.964Z,38.6
2018-04-11T01:15:11.632Z,38.6
2018-04-11T01:16:01.415Z,38.6
2018-04-11T01:16:51.730Z,38.5
2018-04-11T01:17:41.792Z,38.6
2018-04-11T01:18:31.847Z,38.5
2018-04-11T01:19:21.355Z,38.5
2018-04-11T01:20:11.963Z,38.5
2018-04-11T01:21:01.765Z,38.5
2018-04-11T01:21:52.108Z,38.5
2018-04-11T01:22:41.901Z,38.4
2018-04-11T01:23:31.975Z,38.5
2018-04-11T01:24:22.026Z,38.4
2018-04-11T01:25:11.816Z,38.4
2018-04-11T01:26:02.455Z,38.4
2018-04-11T01:26:52.510Z,38.4
2018-04-11T01:27:42.557Z,38.4
2018-04-11T01:28:32.328Z,38.4
2018-04-11T01:29:22.377Z,38.4
2018-04-11T01:30:11.624Z,38.4
2018-04-11T01:31:02.594Z,38.4
2018-04-11T01:31:52.325Z,38.4
2018-04-11T01:32:42.646Z,38.4
2018-04-11T01:33:32.689Z,38.4
2018-04-11T01:34:22.470Z,38.3
2018-04-11T01:35:12.826Z,38.3
2018-04-11T01:36:02.900Z,38.3
2018-04-11T01:36:52.700Z,38.3
2018-04-11T01:37:43.279Z,38.3
2018-04-11T01:38:33.354Z,38.3
2018-04-11T01:39:23.146Z,38.3
2018-04-11T01:40:13.487Z,38.3
2018-04-11T01:41:03.023Z,38.3
2018-04-11T01:41:53.359Z,38.3
2018-04-11T01:42:43.393Z,38.3
2018-04-11T01:43:33.467Z,38.3
2018-04-11T01:44:23.566Z,38.2
2018-04-11T01:45:13.563Z,38.2
2018-04-11T01:46:03.925Z,38.2
2018-04-11T01:46:53.710Z,38.2
2018-04-11T01:47:43.496Z,38.2
2018-04-11T01:48:34.095Z,38.2
2018-04-11T01:49:24.173Z,38.2
2018-04-11T01:50:14.248Z,38.1
2018-04-11T01:51:04.050Z,38.1
2018-04-11T01:51:54.082Z,38.1
2018-04-11T01:52:43.879Z,38.1
2018-04-11T01:53:34.223Z,38.1
2018-04-11T01:54:24.280Z,38.1
2018-04-11T01:55:13.819Z,38.1
2018-04-11T01:56:04.395Z,38.1
2018-04-11T01:56:54.436Z,38.1
2018-04-11T01:57:44.246Z,38.1
2018-04-11T01:58:34.886Z,38.1
2018-04-11T01:59:24.931Z,38.1
2018-04-11T02:00:14.986Z,38.1
2018-04-11T02:01:04.760Z,38
2018-04-11T02:01:54.275Z,38
2018-04-11T02:02:44.659Z,38
2018-04-11T02:03:34.966Z,38
2018-04-11T02:04:25.037Z,38
2018-04-11T02:05:15.089Z,37.9
2018-04-11T02:06:04.855Z,37.9
2018-04-11T02:06:55.494Z,37.9
2018-04-11T02:07:45.274Z,37.9
2018-04-11T02:08:35.705Z,37.9
2018-04-11T02:09:25.408Z,37.9
2018-04-11T02:10:15.466Z,37.9
2018-04-11T02:11:05.621Z,37.9
2018-04-11T02:11:55.313Z,37.9
2018-04-11T02:12:45.670Z,37.9
2018-04-11T02:13:35.168Z,37.9
2018-04-11T02:14:25.508Z,37.9
2018-04-11T02:15:15.810Z,37.9
2018-04-11T02:16:05.628Z,37.8
2018-04-11T02:16:56.261Z,37.9
2018-04-11T02:17:46.084Z,37.9
2018-04-11T02:18:35.774Z,37.8
2018-04-11T02:19:26.520Z,37.8
2018-04-11T02:20:16.220Z,37.8
2018-04-11T02:21:05.995Z,37.8
2018-04-11T02:21:56.611Z,37.8
2018-04-11T02:22:46.409Z,37.8
2018-04-11T02:23:36.734Z,37.8
2018-04-11T02:24:26.797Z,37.8
2018-04-11T02:25:16.580Z,37.8
2018-04-11T02:26:06.676Z,37.8
2018-04-11T02:26:57.001Z,37.8
2018-04-11T02:27:45.928Z,37.7
2018-04-11T02:28:36.554Z,37.8
2018-04-11T02:29:27.208Z,37.7
2018-04-11T02:30:17.243Z,37.7
2018-04-11T02:31:07.022Z,37.7
2018-04-11T02:31:56.929Z,37.7
2018-04-11T02:32:47.144Z,37.6
2018-04-11T02:33:37.228Z,37.6
2018-04-11T02:34:27.615Z,37.6
2018-04-11T02:35:17.352Z,37.6
2018-04-11T02:36:07.720Z,37.6
2018-04-11T02:36:57.790Z,37.6
2018-04-11T02:37:47.255Z,37.6
2018-04-11T02:38:37.355Z,37.6
2018-04-11T02:39:27.658Z,37.6
2018-04-11T02:40:17.998Z,37.6
2018-04-11T02:41:08.100Z,37.6
2018-04-11T02:41:58.150Z,37.6
2018-04-11T02:42:47.923Z,37.6
2018-04-11T02:43:38.229Z,37.6
2018-04-11T02:44:28.048Z,37.5
2018-04-11T02:45:18.359Z,37.5
2018-04-11T02:46:07.573Z,37.5
2018-04-11T02:46:58.227Z,37.5
2018-04-11T02:47:48.279Z,37.5
2018-04-11T02:48:38.028Z,37.5
2018-04-11T02:49:28.401Z,37.5
2018-04-11T02:50:18.456Z,37.4
2018-04-11T02:51:08.845Z,37.4
2018-04-11T02:51:58.577Z,37.4
2018-04-11T02:52:48.960Z,37.4
2018-04-11T02:53:38.167Z,37.4
2018-04-11T02:54:28.548Z,37.4
2018-04-11T02:55:18.550Z,37.4
2018-04-11T02:56:08.662Z,37.4
2018-04-11T02:56:58.979Z,37.4
2018-04-11T02:57:49.292Z,37.4
2018-04-11T02:58:39.385Z,37.4
2018-04-11T02:59:29.414Z,37.3
2018-04-11T03:00:18.934Z,37.4
2018-04-11T03:01:09.281Z,37.3
2018-04-11T03:01:59.631Z,37.3
2018-04-11T03:02:49.666Z,37.3
2018-04-11T03:03:39.469Z,37.3
2018-04-11T03:04:29.227Z,37.3
2018-04-11T03:05:19.282Z,37.3
2018-04-11T03:06:09.959Z,37.3
2018-04-11T03:06:59.426Z,37.3
2018-04-11T03:07:49.757Z,37.3
2018-04-11T03:08:40.124Z,37.3
2018-04-11T03:09:30.456Z,37.3
2018-04-11T03:10:20.252Z,37.3
2018-04-11T03:11:10.324Z,37.3
2018-04-11T03:12:00.090Z,37.3
2018-04-11T03:12:50.154Z,37.2
2018-04-11T03:13:40.509Z,37.2
2018-04-11T03:14:30.267Z,37.2
2018-04-11T03:15:20.622Z,37.2
2018-04-11T03:16:10.689Z,37.2
2018-04-11T03:16:59.894Z,37.2
2018-04-11T03:17:50.507Z,37.2
2018-04-11T03:18:40.304Z,37.1
2018-04-11T03:19:30.354Z,37.1
2018-04-11T03:20:20.152Z,37.1
2018-04-11T03:21:10.765Z,37.1
2018-04-11T03:22:00.869Z,37.1
2018-04-11T03:22:50.328Z,37.1
2018-04-11T03:23:40.962Z,37.1
2018-04-11T03:24:30.558Z,37.1
2018-04-11T03:25:21.490Z,37.1
2018-04-11T03:26:11.135Z,37.1
2018-04-11T03:27:01.514Z,37.1
2018-04-11T03:27:51.280Z,37.1
2018-04-11T03:28:41.302Z,37
2018-04-11T03:29:31.666Z,37
2018-04-11T03:30:21.194Z,37
2018-04-11T03:31:10.974Z,37
2018-04-11T03:32:01.840Z,37
2018-04-11T03:32:51.930Z,37
2018-04-11T03:33:42.006Z,36.9
2018-04-11T03:34:31.772Z,36.9
2018-04-11T03:35:21.811Z,36.9
2018-04-11T03:36:11.605Z,36.9
2018-04-11T03:37:01.690Z,36.9
2018-04-11T03:37:52.289Z,36.9
2018-04-11T03:38:41.794Z,36.9
2018-04-11T03:39:32.419Z,36.9
2018-04-11T03:40:21.957Z,36.9
2018-04-11T03:41:11.708Z,36.9
2018-04-11T03:42:02.322Z,36.9
2018-04-11T03:42:52.392Z,36.9
2018-04-11T03:43:42.167Z,36.9
2018-04-11T03:44:32.783Z,36.9
2018-04-11T03:45:22.643Z,36.9
2018-04-11T03:46:12.334Z,36.9
2018-04-11T03:47:02.439Z,36.8
2018-04-11T03:47:52.772Z,36.8
2018-04-11T03:48:42.305Z,36.4
2018-04-11T03:49:32.604Z,36.3
2018-04-11T03:50:22.352Z,36
2018-04-11T03:51:13.033Z,36
2018-04-11T03:52:02.805Z,35.8
2018-04-11T03:52:52.542Z,35.7
2018-04-11T03:53:42.908Z,35.8
2018-04-11T03:54:33.275Z,35.6
2018-04-11T03:55:23.049Z,35.6
2018-04-11T03:56:13.680Z,35.5
2018-04-11T03:57:03.168Z,35.4
2018-04-11T03:57:53.498Z,34.6
2018-04-11T03:58:43.013Z,33.1
2018-04-11T03:59:33.652Z,32.1
2018-04-11T04:00:23.718Z,31.1
2018-04-11T04:01:13.208Z,30.4
2018-04-11T04:02:03.573Z,30.1
2018-04-11T04:02:53.921Z,29.9
2018-04-11T04:03:44.223Z,29.6
2018-04-11T04:04:34.024Z,29.4
2018-04-11T04:05:24.359Z,29.4
2018-04-11T04:06:14.153Z,29.3
2018-04-11T04:07:04.212Z,29.3
2018-04-11T04:07:53.972Z,29.2
2018-04-11T04:08:44.321Z,29.3
2018-04-11T04:09:34.392Z,29.3
2018-04-11T04:10:24.739Z,29.2
2018-04-11T04:11:14.547Z,29.2
2018-04-11T04:12:04.590Z,29.2
2018-04-11T04:12:54.665Z,29.2
2018-04-11T04:13:45.163Z,29.2
2018-04-11T04:14:34.454Z,29.2
2018-04-11T04:15:24.804Z,29.3
2018-04-11T04:16:15.147Z,29.3
2018-04-11T04:17:04.969Z,29.3
2018-04-11T04:17:55.057Z,29.3
2018-04-11T04:18:45.079Z,29.3
2018-04-11T04:19:35.113Z,29.3
2018-04-11T04:20:25.177Z,29.3
2018-04-11T04:21:15.520Z,29.3
2018-04-11T04:22:05.321Z,29.3
2018-04-11T04:22:55.661Z,29.3
2018-04-11T04:23:45.418Z,29.3
2018-04-11T04:24:35.777Z,29.3
2018-04-11T04:25:25.285Z,29.3
2018-04-11T04:26:15.355Z,29.3
2018-04-11T04:27:05.967Z,29.3
2018-04-11T04:27:55.754Z,29.3
2018-04-11T04:28:45.795Z,29.4
2018-04-11T04:29:35.882Z,29.3
2018-04-11T04:30:26.354Z,29.3
2018-04-11T04:31:16.257Z,29.4
2018-04-11T04:32:06.371Z,29.4
2018-04-11T04:32:56.116Z,29.4
2018-04-11T04:33:46.476Z,29.4
2018-04-11T04:34:36.248Z,29.4
2018-04-11T04:35:26.296Z,29.4
2018-04-11T04:36:16.092Z,29.4
2018-04-11T04:37:06.171Z,29.4
2018-04-11T04:37:56.498Z,29.4
2018-04-11T04:38:46.006Z,29.4
2018-04-11T04:39:36.901Z,29.4
2018-04-11T04:40:26.678Z,29.4
2018-04-11T04:41:17.037Z,29.4
2018-04-11T04:42:07.152Z,29.4
2018-04-11T04:42:56.320Z,29.4
2018-04-11T04:43:46.944Z,29.4
2018-04-11T04:44:37.273Z,29.4
2018-04-11T04:45:27.331Z,29.4
2018-04-11T04:46:17.105Z,29.5
2018-04-11T04:47:07.197Z,29.5
2018-04-11T04:47:57.223Z,29.5
2018-04-11T04:48:47.663Z,29.5
2018-04-11T04:49:37.364Z,29.5
2018-04-11T04:50:27.463Z,29.5
2018-04-11T04:51:17.757Z,29.5
2018-04-11T04:52:07.864Z,29.5
2018-04-11T04:52:57.920Z,29.5
2018-04-11T04:53:47.409Z,29.5
2018-04-11T04:54:37.451Z,29.5
2018-04-11T04:55:28.083Z,29.6
2018-04-11T04:56:17.854Z,29.5
2018-04-11T04:57:07.929Z,29.5
2018-04-11T04:57:57.987Z,29.6
2018-04-11T04:58:48.340Z,29.6
2018-04-11T04:59:38.360Z,29.6
2018-04-11T05:00:27.614Z,29.6
2018-04-11T05:01:17.956Z,29.6
2018-04-11T05:02:08.109Z,29.6
2018-04-11T05:02:57.874Z,29.6
2018-04-11T05:03:47.581Z,29.6
2018-04-11T05:04:38.462Z,29.6
2018-04-11T05:05:28.259Z,29.6
2018-04-11T05:06:18.309Z,29.4
2018-04-11T05:07:08.951Z,29.3
2018-04-11T05:07:58.211Z,29.1
2018-04-11T05:08:48.496Z,29.1
2018-04-11T05:09:39.189Z,29.1
2018-04-11T05:10:28.626Z,29
2018-04-11T05:11:18.981Z,29
2018-04-11T05:12:09.060Z,28.9
2018-04-11T05:12:59.091Z,28.9
2018-04-11T05:13:48.896Z,29
2018-04-11T05:14:39.514Z,28.9
2018-04-11T05:15:29.588Z,28.9
2018-04-11T05:16:19.620Z,28.9
2018-04-11T05:17:09.693Z,28.9
2018-04-11T05:17:59.234Z,28.9
2018-04-11T05:18:49.242Z,28.9
2018-04-11T05:19:39.868Z,28.9
2018-04-11T05:20:29.925Z,28.9
2018-04-11T05:21:19.712Z,28.9
2018-04-11T05:22:10.056Z,28.9
2018-04-11T05:22:59.862Z,28.9
2018-04-11T05:23:50.178Z,28.9
2018-04-11T05:24:39.961Z,28.9
2018-04-11T05:25:30.313Z,28.9
2018-04-11T05:26:20.363Z,28.9
2018-04-11T05:27:10.454Z,28.9
2018-04-11T05:28:00.200Z,28.9
2018-04-11T05:28:50.000Z,28.9
2018-04-11T05:29:40.314Z,28.9
2018-04-11T05:30:30.421Z,28.9
2018-04-11T05:31:20.800Z,29
2018-04-11T05:32:10.238Z,28.9
2018-04-11T05:33:00.620Z,29
2018-04-11T05:34:16.380Z,28.9
2018-04-11T05:35:07.345Z,29
2018-04-11T05:35:57.398Z,29
2018-04-11T05:36:47.435Z,29
2018-04-11T05:37:37.208Z,29
2018-04-11T05:38:27.595Z,29
2018-04-11T05:39:17.554Z,29
2018-04-11T05:40:07.568Z,29
2018-04-11T05:40:57.768Z,29
2018-04-11T05:41:47.247Z,29
2018-04-11T05:42:37.882Z,29
2018-04-11T05:43:27.683Z,29
2018-04-11T05:44:17.418Z,29
2018-04-11T05:45:08.069Z,29
2018-04-11T05:45:57.552Z,29
2018-04-11T05:46:47.597Z,29
2018-04-11T05:47:37.667Z,29
2018-04-11T05:48:28.019Z,29
2018-04-11T05:49:17.316Z,29
2018-04-11T05:50:07.881Z,29
2018-04-11T05:50:57.049Z,29
2018-04-11T05:51:47.999Z,29
2018-04-11T05:52:37.768Z,29
2018-04-11T05:53:27.743Z,29
2018-04-11T05:54:18.162Z,29
2018-04-11T05:55:07.776Z,29
2018-04-11T05:55:58.300Z,29
2018-04-11T05:56:47.579Z,29
2018-04-11T05:57:38.241Z,29
2018-04-11T05:58:28.570Z,29
2018-04-11T05:59:18.550Z,29
2018-04-11T06:00:08.392Z,29
2018-04-11T06:00:59.271Z,29
2018-04-11T06:01:48.446Z,29
2018-04-11T06:02:39.072Z,29
2018-04-11T06:03:28.869Z,29
2018-04-11T06:04:18.415Z,29
2018-04-11T06:05:09.067Z,29
2018-04-11T06:05:59.789Z,29
2018-04-11T06:06:49.381Z,29
2018-04-11T06:07:39.745Z,29
2018-04-11T06:08:29.367Z,29
2018-04-11T06:09:19.574Z,29
2018-04-11T06:10:09.915Z,29
2018-04-11T06:10:59.689Z,29
2018-04-11T06:11:49.875Z,29
2018-04-11T06:12:40.084Z,29
2018-04-11T06:13:29.876Z,29
2018-04-11T06:14:19.783Z,29
2018-04-11T06:15:09.729Z,29
2018-04-11T06:15:59.776Z,29
2018-04-11T06:16:50.452Z,29
2018-04-11T06:17:39.902Z,29
2018-04-11T06:18:30.261Z,29
2018-04-11T06:19:20.594Z,29
2018-04-11T06:20:09.811Z,29
2018-04-11T06:21:00.422Z,29
2018-04-11T06:21:50.524Z,29
2018-04-11T06:22:40.896Z,29
2018-04-11T06:23:30.872Z,29
2018-04-11T06:24:20.671Z,29
2018-04-11T06:25:10.741Z,29
2018-04-11T06:26:00.806Z,29
2018-04-11T06:26:50.575Z,29
2018-04-11T06:27:41.245Z,29
2018-04-11T06:28:30.984Z,29
2018-04-11T06:29:20.758Z,29
2018-04-11T06:30:11.391Z,29
2018-04-11T06:31:01.449Z,29
2018-04-11T06:31:51.543Z,29
2018-04-11T06:32:41.314Z,29
2018-04-11T06:33:31.663Z,29
2018-04-11T06:34:21.547Z,29
2018-04-11T06:35:12.015Z,29
2018-04-11T06:36:01.850Z,29
2018-04-11T06:36:51.632Z,29
2018-04-11T06:37:41.692Z,29
2018-04-11T06:38:32.055Z,29
2018-04-11T06:39:22.106Z,29
2018-04-11T06:40:12.149Z,29
2018-04-11T06:41:02.244Z,29
2018-04-11T06:41:51.737Z,29
2018-04-11T06:42:42.052Z,29
2018-04-11T06:43:31.869Z,29
2018-04-11T06:44:22.194Z,29
2018-04-11T06:45:12.593Z,29
2018-04-11T06:46:02.293Z,29
2018-04-11T06:46:52.698Z,29
2018-04-11T06:47:42.434Z,29
2018-04-11T06:48:32.520Z,29
2018-04-11T06:49:22.563Z,29
2018-04-11T06:50:12.909Z,29
2018-04-11T06:51:02.669Z,29
2018-04-11T06:51:52.776Z,29
2018-04-11T06:52:43.100Z,29
2018-04-11T06:53:32.318Z,29
2018-04-11T06:54:22.948Z,29
2018-04-11T06:55:13.079Z,29
2018-04-11T06:56:02.775Z,29
2018-04-11T06:56:53.201Z,29
2018-04-11T06:57:43.488Z,28.9
2018-04-11T06:58:33.238Z,28.9
2018-04-11T06:59:23.034Z,29
2018-04-11T07:00:13.653Z,29
2018-04-11T07:01:03.757Z,29
2018-04-11T07:01:52.919Z,29
2018-04-11T07:02:43.893Z,28.9
2018-04-11T07:03:33.330Z,29
2018-04-11T07:04:23.948Z,29
2018-04-11T07:05:14.006Z,29
2018-04-11T07:06:03.830Z,28.9
2018-04-11T07:06:54.134Z,28.9
2018-04-11T07:07:44.208Z,28.9
2018-04-11T07:08:34.013Z,28.9
2018-04-11T07:09:24.345Z,28.9
2018-04-11T07:10:14.390Z,28.9
2018-04-11T07:11:04.184Z,29
2018-04-11T07:11:54.521Z,28.9
2018-04-11T07:12:44.094Z,28.9
2018-04-11T07:13:34.667Z,28.9
2018-04-11T07:14:24.716Z,28.9
2018-04-11T07:15:14.839Z,28.9
2018-04-11T07:16:04.859Z,28.9
2018-04-11T07:16:54.932Z,28.9
2018-04-11T07:17:44.707Z,28.9
2018-04-11T07:18:34.559Z,28.9
2018-04-11T07:19:25.101Z,28.8
2018-04-11T07:20:14.887Z,28.9
2018-04-11T07:21:04.726Z,28.8
2018-04-11T07:21:55.266Z,28.8
2018-04-11T07:22:45.382Z,28.8
2018-04-11T07:23:35.417Z,28.8
2018-04-11T07:24:25.476Z,28.8
2018-04-11T07:25:15.267Z,28.7
2018-04-11T07:26:04.986Z,28.7
2018-04-11T07:26:55.401Z,28.7
2018-04-11T07:27:45.475Z,28.6
2018-04-11T07:28:35.821Z,28.6
2018-04-11T07:29:25.591Z,28.6
2018-04-11T07:30:15.617Z,28.6
2018-04-11T07:31:05.989Z,28.6
2018-04-11T07:31:56.079Z,28.6
2018-04-11T07:32:45.538Z,28.6
2018-04-11T07:33:35.919Z,28.6
2018-04-11T07:34:25.943Z,28.6
2018-04-11T07:35:16.023Z,28.6
2018-04-11T07:36:06.355Z,28.7
2018-04-11T07:36:56.468Z,28.7
2018-04-11T07:37:46.228Z,28.7
2018-04-11T07:38:35.992Z,28.7
2018-04-11T07:39:26.352Z,28.7
2018-04-11T07:40:16.277Z,28.8
2018-04-11T07:41:06.732Z,28.8
2018-04-11T07:41:56.533Z,28.8
2018-04-11T07:42:46.589Z,28.9
2018-04-11T07:43:36.633Z,28.9
2018-04-11T07:44:26.696Z,28.9
2018-04-11T07:45:16.769Z,29
2018-04-11T07:46:07.511Z,29.1
2018-04-11T07:46:56.603Z,29.1
2018-04-11T07:47:47.234Z,29.1
2018-04-11T07:48:37.294Z,29.2
2018-04-11T07:49:27.360Z,29.3
2018-04-11T07:50:16.878Z,29.3
2018-04-11T07:51:06.932Z,29.4
2018-04-11T07:51:56.990Z,29.5
2018-04-11T07:52:47.602Z,29.5
2018-04-11T07:53:37.699Z,29.6
2018-04-11T07:54:27.353Z,29.7
2018-04-11T07:55:17.516Z,29.8
2018-04-11T07:56:07.042Z,29.8
2018-04-11T07:56:57.646Z,29.9
2018-04-11T07:57:47.719Z,29.9
2018-04-11T07:58:37.757Z,30
2018-04-11T07:59:28.143Z,30.1
2018-04-11T08:00:17.915Z,30.2
2018-04-11T08:01:07.414Z,30.3
2018-04-11T08:01:58.306Z,30.3
2018-04-11T08:02:48.122Z,30.4
2018-04-11T08:03:38.468Z,30.4
2018-04-11T08:04:28.207Z,30.5
2018-04-11T08:05:18.002Z,30.6
2018-04-11T08:06:08.627Z,30.6
2018-04-11T08:06:58.407Z,30.8
2018-04-11T08:07:48.837Z,30.8
2018-04-11T08:08:38.548Z,30.9
2018-04-11T08:09:28.607Z,31
2018-04-11T08:10:18.652Z,31.1
2018-04-11T08:11:09.018Z,31.2
2018-04-11T08:11:59.098Z,31.3
2018-04-11T08:12:49.121Z,31.4
2018-04-11T08:13:38.923Z,31.4
2018-04-11T08:14:29.023Z,31.5
2018-04-11T08:15:19.159Z,31.6
2018-04-11T08:16:09.399Z,31.7
2018-04-11T08:16:59.507Z,31.8
2018-04-11T08:17:49.247Z,31.9
2018-04-11T08:18:39.034Z,31.9
2018-04-11T08:19:29.649Z,32
2018-04-11T08:20:19.686Z,32.1
2018-04-11T08:21:09.821Z,32.2
2018-04-11T08:21:58.793Z,32.3
2018-04-11T08:22:49.629Z,32.3
2018-04-11T08:23:39.451Z,32.4
2018-04-11T08:24:29.736Z,32.4
2018-04-11T08:25:19.822Z,32.6
2018-04-11T08:26:09.873Z,32.6
2018-04-11T08:26:59.450Z,32.7
2018-04-11T08:27:49.738Z,32.8
2018-04-11T08:28:40.060Z,32.8
2018-04-11T08:29:29.841Z,32.9
2018-04-11T08:30:20.239Z,32.9
2018-04-11T08:31:09.955Z,33
2018-04-11T08:32:00.595Z,33.1
2018-04-11T08:32:50.653Z,33.3
2018-04-11T08:33:40.431Z,33.3
2018-04-11T08:34:29.727Z,33.4
2018-04-11T08:35:20.579Z,33.4
2018-04-11T08:36:10.618Z,33.6
2018-04-11T08:37:00.678Z,33.7
2018-04-11T08:37:51.070Z,33.8
2018-04-11T08:38:40.818Z,33.9
2018-04-11T08:39:31.155Z,34
2018-04-11T08:40:21.224Z,34.1
2018-04-11T08:41:11.020Z,34.3
2018-04-11T08:42:01.075Z,34.4
2018-04-11T08:42:50.644Z,34.4
2018-04-11T08:43:41.241Z,34.6
2018-04-11T08:44:31.272Z,34.6
2018-04-11T08:45:20.847Z,34.8
2018-04-11T08:46:11.387Z,34.9
2018-04-11T08:47:01.727Z,34.9
2018-04-11T08:47:51.554Z,35.1
2018-04-11T08:48:41.902Z,35.2
2018-04-11T08:49:31.636Z,35.3
2018-04-11T08:50:21.966Z,35.4
2018-04-11T08:51:11.499Z,35.5
2018-04-11T08:52:01.566Z,35.6
2018-04-11T08:52:52.157Z,35.8
2018-04-11T08:53:41.937Z,35.9
2018-04-11T08:54:32.037Z,36
2018-04-11T08:55:22.101Z,36.1
2018-04-11T08:56:11.880Z,36.2
2018-04-11T08:57:02.211Z,36.3
2018-04-11T08:57:52.546Z,36.4
2018-04-11T08:58:42.627Z,36.6
2018-04-11T08:59:32.135Z,36.7
2018-04-11T09:00:22.468Z,36.8
2018-04-11T09:01:12.531Z,36.9
2018-04-11T09:02:02.629Z,37
2018-04-11T09:02:52.686Z,37.1
2018-04-11T09:03:43.013Z,37.3
2018-04-11T09:04:32.788Z,37.3
2018-04-11T09:05:23.054Z,37.4
2018-04-11T09:06:12.935Z,37.5
2018-04-11T09:07:03.271Z,37.6
2018-04-11T09:07:53.331Z,37.8
2018-04-11T09:08:43.395Z,37.8
2018-04-11T09:09:33.156Z,37.9
2018-04-11T09:10:23.528Z,38.1
2018-04-11T09:11:13.286Z,38.1
2018-04-11T09:12:03.631Z,38.3
2018-04-11T09:12:53.440Z,38.4
2018-04-11T09:13:43.756Z,38.5
2018-04-11T09:14:33.818Z,38.6
2018-04-11T09:15:23.920Z,38.7
2018-04-11T09:16:13.995Z,38.8
2018-04-11T09:17:04.060Z,38.9
2018-04-11T09:17:53.820Z,39.1
2018-04-11T09:18:43.862Z,39.2
2018-04-11T09:19:34.399Z,39.3
2018-04-11T09:20:23.738Z,39.4
2018-04-11T09:21:14.423Z,39.5
2018-04-11T09:22:04.126Z,39.6
2018-04-11T09:22:54.215Z,39.7
2018-04-11T09:23:44.273Z,39.8
2018-04-11T09:24:34.361Z,39.8
2018-04-11T09:25:24.678Z,39.9
2018-04-11T09:26:15.017Z,40
2018-04-11T09:27:04.815Z,40.1
2018-04-11T09:27:54.844Z,40.2
2018-04-11T09:28:44.632Z,40.3
2018-04-11T09:29:34.710Z,40.3
2018-04-11T09:30:25.074Z,40.4
2018-04-11T09:31:14.822Z,40.5
2018-04-11T09:32:04.902Z,40.6
2018-04-11T09:32:55.242Z,40.6
2018-04-11T09:33:45.295Z,40.7
2018-04-11T09:34:35.381Z,40.8
2018-04-11T09:35:25.129Z,40.9
2018-04-11T09:36:15.251Z,40.9
2018-04-11T09:37:05.006Z,41
2018-04-11T09:37:55.094Z,41.1
2018-04-11T09:38:45.654Z,41.2
2018-04-11T09:39:35.174Z,41.3
2018-04-11T09:40:25.578Z,41.3
2018-04-11T09:41:15.309Z,41.4
2018-04-11T09:42:05.934Z,41.4
2018-04-11T09:42:56.014Z,41.5
2018-04-11T09:43:45.781Z,41.6
2018-04-11T09:44:35.849Z,41.6
2018-04-11T09:45:25.373Z,41.7
2018-04-11T09:46:16.291Z,41.8
2018-04-11T09:47:05.489Z,41.8
2018-04-11T09:47:56.110Z,41.8
2018-04-11T09:48:45.953Z,41.9
2018-04-11T09:49:36.520Z,41.9
2018-04-11T09:50:26.619Z,42
2018-04-11T09:51:15.328Z,42.1
2018-04-11T09:52:06.725Z,42.1
2018-04-11T09:52:56.808Z,42.2
2018-04-11T09:53:46.286Z,42.2
2018-04-11T09:54:36.604Z,42.3
2018-04-11T09:55:27.001Z,42.4
2018-04-11T09:56:17.018Z,42.4
2018-04-11T09:57:06.831Z,42.4
2018-04-11T09:57:56.870Z,42.5
2018-04-11T09:58:47.230Z,42.6
2018-04-11T09:59:37.008Z,42.6
2018-04-11T10:00:27.460Z,42.7
2018-04-11T10:01:17.167Z,42.8
2018-04-11T10:02:06.928Z,42.8
2018-04-11T10:02:57.266Z,42.9
2018-04-11T10:03:47.055Z,42.9
2018-04-11T10:04:37.451Z,43
2018-04-11T10:05:27.192Z,43.1
2018-04-11T10:06:17.849Z,43.1
2018-04-11T10:07:07.879Z,43.2
2018-04-11T10:07:57.928Z,43.3
2018-04-11T10:08:47.715Z,43.4
2018-04-11T10:09:37.488Z,43.4
2018-04-11T10:10:26.873Z,43.5
2018-04-11T10:11:18.189Z,43.6
2018-04-11T10:12:07.860Z,43.6
2018-04-11T10:12:58.041Z,43.7
2018-04-11T10:13:47.255Z,43.8
2018-04-11T10:14:37.962Z,43.8
2018-04-11T10:15:28.226Z,43.9
2018-04-11T10:16:18.640Z,44
2018-04-11T10:17:07.781Z,44.1
2018-04-11T10:17:58.406Z,44.1
2018-04-11T10:18:48.743Z,44.2
2018-04-11T10:19:38.901Z,44.3
2018-04-11T10:20:28.041Z,44.3
2018-04-11T10:21:18.391Z,44.4
2018-04-11T10:22:08.253Z,44.4
2018-04-11T10:22:59.108Z,44.5
2018-04-11T10:23:48.660Z,44.6
2018-04-11T10:24:38.471Z,44.6
2018-04-11T10:25:28.827Z,44.7
2018-04-11T10:26:18.530Z,44.8
2018-04-11T10:27:09.418Z,44.8
2018-04-11T10:27:58.790Z,44.9
2018-04-11T10:28:49.265Z,44.9
2018-04-11T10:29:39.619Z,45
2018-04-11T10:30:29.667Z,45.1
2018-04-11T10:31:19.183Z,45.1
2018-04-11T10:32:09.543Z,45.2
2018-04-11T10:32:59.588Z,45.3
2018-04-11T10:33:49.936Z,45.3
2018-04-11T10:34:39.695Z,45.3
2018-04-11T10:35:29.787Z,45.4
2018-04-11T10:36:20.135Z,45.5
2018-04-11T10:37:10.239Z,45.6
2018-04-11T10:38:00.264Z,45.6
2018-04-11T10:38:50.337Z,45.7
2018-04-11T10:39:39.829Z,45.8
2018-04-11T10:40:30.173Z,45.9
2018-04-11T10:41:19.374Z,45.9
2018-04-11T10:42:10.581Z,46.1
2018-04-11T10:43:00.358Z,46.1
2018-04-11T10:43:50.391Z,46.3
2018-04-11T10:44:40.472Z,46.3
2018-04-11T10:45:30.813Z,46.4
2018-04-11T10:46:20.583Z,46.5
2018-04-11T10:47:10.662Z,46.6
2018-04-11T10:48:01.048Z,46.7
2018-04-11T10:48:50.780Z,46.8
2018-04-11T10:49:40.874Z,46.8
2018-04-11T10:50:30.936Z,46.9
2018-04-11T10:51:21.269Z,47.1
2018-04-11T10:52:11.069Z,47.1
2018-04-11T10:53:00.561Z,47.3
2018-04-11T10:53:50.655Z,47.4
2018-04-11T10:54:41.526Z,47.4
2018-04-11T10:55:31.616Z,47.6
2018-04-11T10:56:21.672Z,47.7
2018-04-11T10:57:11.705Z,47.8
2018-04-11T10:58:01.246Z,47.9
2018-04-11T10:58:51.867Z,48
2018-04-11T10:59:41.633Z,48.1
2018-04-11T11:00:31.689Z,48.2
2018-04-11T11:01:21.188Z,48.3
2018-04-11T11:02:11.836Z,48.4
2018-04-11T11:03:01.900Z,48.5
2018-04-11T11:03:51.368Z,48.6
2018-04-11T11:04:42.093Z,48.7
2018-04-11T11:05:32.113Z,48.8
2018-04-11T11:06:21.845Z,48.9
2018-04-11T11:07:12.208Z,49
2018-04-11T11:08:02.551Z,49.1
2018-04-11T11:08:52.332Z,49.3
2018-04-11T11:09:42.907Z,49.4
2018-04-11T11:10:32.183Z,49.4
2018-04-11T11:11:22.223Z,49.6
2018-04-11T11:12:12.319Z,49.7
2018-04-11T11:13:02.998Z,49.8
2018-04-11T11:13:52.752Z,49.9
2018-04-11T11:14:42.824Z,49.9